Time;durP1;ratioP1;P1;durP2;ratioP2;P2;SDS_P1;SDS_P2;PMS_P1;PMS_P2;Temp;Humidity;BMP_temperature;BMP_pressure;BME280_temperature;BME280_humidity;BME280_pressure;Samples;Min_cycle;Max_cycle;Signal;HPM_P1;HPM_P2
2023/05/27 00:00:09;;;;;;;10.57;5.57;;;23.50;65.60;;;;;;6243675;23;20008;-72
2023/05/27 00:02:35;;;;;;;8.90;5.75;;;23.50;65.70;;;;;;6244078;23;19996;-74
2023/05/27 00:05:02;;;;;;;7.25;4.88;;;23.50;65.50;;;;;;6243782;23;20103;-74
2023/05/27 00:07:28;;;;;;;11.88;5.60;;;23.50;65.40;;;;;;6244203;23;20035;-74
2023/05/27 00:09:54;;;;;;;9.82;5.75;;;23.50;65.40;;;;;;6217149;23;20011;-75
2023/05/27 00:12:20;;;;;;;8.10;5.30;;;23.40;65.30;;;;;;6243974;23;20004;-74
2023/05/27 00:14:46;;;;;;;11.85;5.47;;;23.40;65.40;;;;;;6244137;23;20067;-74
2023/05/27 00:17:13;;;;;;;8.38;5.75;;;23.30;65.30;;;;;;6244028;23;20004;-74
2023/05/27 00:19:40;;;;;;;11.10;5.55;;;23.30;65.20;;;;;;6244156;23;20007;-75
2023/05/27 00:22:06;;;;;;;8.52;5.90;;;23.20;65.40;;;;;;6244364;23;19996;-74
2023/05/27 00:24:34;;;;;;;9.75;5.30;;;23.20;65.40;;;;;;6241391;23;20000;-73
2023/05/27 00:27:01;;;;;;;9.27;5.60;;;23.20;65.30;;;;;;6217541;23;20073;-74
2023/05/27 00:29:27;;;;;;;10.05;5.55;;;23.20;65.30;;;;;;6217336;23;20012;-73
2023/05/27 00:31:52;;;;;;;9.82;5.68;;;23.20;65.10;;;;;;6244390;23;20000;-74
2023/05/27 00:34:18;;;;;;;7.05;5.55;;;23.10;65.10;;;;;;6245286;23;20004;-74
2023/05/27 00:36:44;;;;;;;8.60;5.82;;;23.10;65.20;;;;;;6244882;23;20015;-73
2023/05/27 00:39:10;;;;;;;9.38;5.57;;;23.00;65.20;;;;;;6249007;23;20438;-74
2023/05/27 00:41:36;;;;;;;11.48;6.10;;;22.90;65.20;;;;;;6260158;23;19996;-73
2023/05/27 00:44:03;;;;;;;9.75;5.78;;;22.90;65.30;;;;;;6269005;23;20026;-73
2023/05/27 00:46:29;;;;;;;9.27;5.78;;;22.80;65.20;;;;;;6257921;23;20007;-73
2023/05/27 00:48:55;;;;;;;11.02;5.93;;;22.80;65.50;;;;;;6244989;23;20095;-74
2023/05/27 00:51:21;;;;;;;10.00;5.80;;;22.80;65.40;;;;;;6244452;23;20391;-74
2023/05/27 00:53:47;;;;;;;8.95;5.70;;;22.80;65.30;;;;;;6244667;23;20422;-74
2023/05/27 00:56:15;;;;;;;12.23;5.45;;;22.90;65.50;;;;;;6217181;23;20008;-74
2023/05/27 00:58:41;;;;;;;10.02;5.32;;;22.90;65.40;;;;;;6244157;23;20031;-74
2023/05/27 01:01:07;;;;;;;14.55;5.97;;;22.90;65.60;;;;;;6244421;23;19996;-74
2023/05/27 01:03:34;;;;;;;8.48;5.57;;;22.90;65.50;;;;;;6244372;23;20016;-73
2023/05/27 01:06:32;;;;;;;9.45;6.22;;;22.80;65.70;;;;;;6244382;23;20006;-73
2023/05/27 01:09:17;;;;;;;9.27;5.70;;;22.70;65.30;;;;;;6232962;23;20016;-74
2023/05/27 01:12:10;;;;;;;10.50;5.63;;;22.80;65.60;;;;;;6217398;23;20387;-74
2023/05/27 01:14:38;;;;;;;10.05;5.60;;;22.70;65.40;;;;;;6243743;23;20054;-74
2023/05/27 01:17:06;;;;;;;12.50;5.88;;;22.70;65.50;;;;;;6243993;23;20075;-74
2023/05/27 01:19:42;;;;;;;8.45;5.75;;;22.70;65.70;;;;;;6243945;23;20188;-75
2023/05/27 01:22:10;;;;;;;11.57;6.57;;;22.60;65.70;;;;;;6244236;23;20000;-74
2023/05/27 01:24:37;;;;;;;9.95;6.05;;;22.60;65.80;;;;;;6244215;23;20005;-74
2023/05/27 01:27:03;;;;;;;9.43;6.35;;;22.50;65.90;;;;;;6244386;23;20008;-74
2023/05/27 01:29:30;;;;;;;8.55;6.18;;;22.50;66.00;;;;;;6217726;23;20016;-73
2023/05/27 01:32:00;;;;;;;12.98;6.88;;;22.40;66.00;;;;;;6246324;23;20012;-74
2023/05/27 01:34:46;;;;;;;10.85;6.15;;;22.40;66.20;;;;;;6246288;23;20386;-75
2023/05/27 01:37:16;;;;;;;7.75;5.40;;;22.40;66.50;;;;;;6245995;23;20066;-74
2023/05/27 01:39:42;;;;;;;11.25;6.10;;;22.40;66.30;;;;;;6246433;23;20008;-74
2023/05/27 01:42:08;;;;;;;12.32;6.20;;;22.40;66.50;;;;;;6246153;23;20000;-73
2023/05/27 01:44:35;;;;;;;9.07;5.85;;;22.30;66.30;;;;;;6245884;23;20423;-74
2023/05/27 01:47:02;;;;;;;10.77;6.78;;;22.30;66.40;;;;;;6246043;23;20075;-74
2023/05/27 01:49:29;;;;;;;9.73;6.22;;;22.30;66.30;;;;;;6245768;23;20008;-74
2023/05/27 01:51:55;;;;;;;11.70;5.82;;;22.30;66.10;;;;;;6245714;23;20000;-74
2023/05/27 01:54:21;;;;;;;9.43;6.07;;;22.30;66.20;;;;;;6245990;23;20334;-73
2023/05/27 01:56:46;;;;;;;10.02;6.03;;;22.30;66.20;;;;;;6218676;23;20314;-73
2023/05/27 01:59:12;;;;;;;13.00;6.03;;;22.30;66.20;;;;;;6218561;23;20019;-74
2023/05/27 02:01:38;;;;;;;10.20;5.93;;;22.30;66.30;;;;;;6245713;23;20056;-74
2023/05/27 02:04:04;;;;;;;7.90;5.45;;;22.20;66.40;;;;;;6245652;23;20380;-75
2023/05/27 02:06:30;;;;;;;8.90;5.70;;;22.20;66.30;;;;;;6245561;23;20090;-73
2023/05/27 02:08:55;;;;;;;11.18;5.70;;;22.30;66.40;;;;;;6245605;23;20084;-75
2023/05/27 02:11:21;;;;;;;13.30;6.00;;;22.30;66.30;;;;;;6245722;23;20004;-73
2023/05/27 02:13:47;;;;;;;10.38;5.85;;;22.30;66.10;;;;;;6245920;23;20020;-75
2023/05/27 02:16:14;;;;;;;11.75;5.53;;;22.40;66.20;;;;;;6247477;23;20000;-75
2023/05/27 02:18:40;;;;;;;8.50;6.05;;;22.30;66.00;;;;;;6245358;23;20070;-73
2023/05/27 02:21:06;;;;;;;11.63;5.97;;;22.30;66.10;;;;;;6217955;23;20000;-73
2023/05/27 02:23:36;;;;;;;8.05;5.75;;;22.40;66.20;;;;;;6245322;23;20007;-73
2023/05/27 02:26:02;;;;;;;11.25;5.93;;;22.40;66.00;;;;;;6245430;23;20015;-74
2023/05/27 02:28:28;;;;;;;11.32;6.00;;;22.40;65.90;;;;;;6245360;23;20012;-74
2023/05/27 02:30:53;;;;;;;9.55;5.75;;;22.40;66.00;;;;;;6245470;23;20027;-74
2023/05/27 02:33:19;;;;;;;10.05;6.07;;;22.30;66.00;;;;;;6245559;23;20035;-73
2023/05/27 02:35:45;;;;;;;9.40;5.80;;;22.20;66.10;;;;;;6245398;23;20091;-74
2023/05/27 02:38:11;;;;;;;7.93;5.72;;;22.30;66.10;;;;;;6244702;23;20012;-73
2023/05/27 02:40:37;;;;;;;9.48;6.05;;;22.20;66.30;;;;;;6217511;23;20008;-74
2023/05/27 02:43:02;;;;;;;9.18;5.50;;;22.30;66.30;;;;;;6244712;23;20086;-74
2023/05/27 02:45:28;;;;;;;7.55;5.60;;;22.20;66.30;;;;;;6245058;23;20430;-74
2023/05/27 02:47:55;;;;;;;8.13;5.75;;;22.20;67.00;;;;;;6245047;23;20083;-74
2023/05/27 02:50:21;;;;;;;8.57;6.13;;;22.20;66.60;;;;;;6218542;23;20084;-73
2023/05/27 02:52:46;;;;;;;12.98;6.20;;;22.10;66.40;;;;;;6245520;23;20035;-72
2023/05/27 02:55:12;;;;;;;9.27;6.18;;;22.10;66.50;;;;;;6245761;23;20008;-74
2023/05/27 02:57:38;;;;;;;13.02;6.20;;;22.10;66.60;;;;;;6245332;23;20457;-73
2023/05/27 03:00:04;;;;;;;9.15;6.40;;;22.10;66.70;;;;;;6245282;23;20000;-74
2023/05/27 03:02:30;;;;;;;11.18;6.00;;;22.10;66.70;;;;;;6245290;23;20003;-75
2023/05/27 03:04:57;;;;;;;12.73;6.25;;;22.10;66.50;;;;;;6218246;23;20020;-74
2023/05/27 03:07:23;;;;;;;10.68;6.55;;;22.00;66.10;;;;;;6268362;23;20019;-74
2023/05/27 03:09:49;;;;;;;10.30;5.60;;;22.00;66.10;;;;;;6236989;23;20015;-74
2023/05/27 03:12:15;;;;;;;18.33;6.18;;;22.00;65.90;;;;;;6246198;23;20391;-74
2023/05/27 03:14:40;;;;;;;11.43;5.75;;;22.00;65.70;;;;;;6245603;23;20003;-74
2023/05/27 03:17:06;;;;;;;10.07;5.60;;;22.00;65.50;;;;;;6245223;23;20004;-74
2023/05/27 03:19:32;;;;;;;9.02;5.32;;;22.00;65.70;;;;;;6245152;23;20092;-74
2023/05/27 03:21:57;;;;;;;9.43;5.28;;;22.00;65.70;;;;;;6245144;23;20402;-74
2023/05/27 03:24:23;;;;;;;10.60;5.75;;;22.00;65.60;;;;;;6245310;23;20430;-73
2023/05/27 03:26:49;;;;;;;8.70;5.07;;;22.00;65.40;;;;;;6245151;23;20004;-74
2023/05/27 03:29:15;;;;;;;11.02;5.72;;;22.00;65.30;;;;;;6218196;23;20008;-73
2023/05/27 03:31:41;;;;;;;9.10;6.13;;;22.00;65.30;;;;;;6245063;23;20426;-75
2023/05/27 03:34:07;;;;;;;12.40;5.55;;;21.90;65.20;;;;;;6245072;23;20052;-74
2023/05/27 03:36:35;;;;;;;14.05;5.80;;;21.90;65.30;;;;;;6245514;23;20383;-73
2023/05/27 03:39:00;;;;;;;8.60;5.80;;;21.90;65.20;;;;;;6244901;23;20075;-73
2023/05/27 03:41:26;;;;;;;13.23;5.63;;;21.90;65.60;;;;;;6244878;23;20000;-73
2023/05/27 03:43:52;;;;;;;12.05;5.78;;;21.90;65.50;;;;;;6244497;23;20011;-74
2023/05/27 03:46:17;;;;;;;14.02;6.32;;;21.90;65.50;;;;;;6244839;23;20000;-75
2023/05/27 03:48:43;;;;;;;9.68;6.50;;;21.80;65.60;;;;;;6244790;23;20004;-73
2023/05/27 03:51:09;;;;;;;14.57;6.22;;;21.70;65.70;;;;;;6244900;23;20000;-74
2023/05/27 03:53:35;;;;;;;12.57;5.82;;;21.70;65.70;;;;;;6244454;23;20382;-75
2023/05/27 03:56:01;;;;;;;8.68;6.25;;;21.60;65.70;;;;;;6244226;23;20008;-74
2023/05/27 03:58:26;;;;;;;13.57;6.03;;;21.60;66.00;;;;;;6244253;23;20024;-74
2023/05/27 04:00:52;;;;;;;9.32;5.38;;;21.60;65.90;;;;;;6244499;23;20449;-74
2023/05/27 04:03:18;;;;;;;15.88;6.25;;;21.60;66.00;;;;;;6244069;23;20379;-74
2023/05/27 04:05:44;;;;;;;10.07;5.82;;;21.60;65.90;;;;;;6244082;23;19997;-73
2023/05/27 04:08:10;;;;;;;11.35;5.65;;;21.60;66.00;;;;;;6217019;23;20004;-73
2023/05/27 04:10:35;;;;;;;13.68;6.15;;;21.70;66.20;;;;;;6244928;23;20007;-73
2023/05/27 04:13:01;;;;;;;9.45;5.97;;;21.70;66.20;;;;;;6245197;23;19996;-74
2023/05/27 04:15:27;;;;;;;14.05;5.72;;;21.70;66.00;;;;;;6245199;23;20453;-74
2023/05/27 04:17:52;;;;;;;10.48;6.70;;;21.70;66.00;;;;;;6244981;23;20074;-72
2023/05/27 04:20:18;;;;;;;10.88;5.93;;;21.70;66.10;;;;;;6244719;23;20000;-74
2023/05/27 04:22:44;;;;;;;10.52;5.63;;;21.70;66.00;;;;;;6245054;23;19996;-73
2023/05/27 04:25:10;;;;;;;9.93;6.07;;;21.60;66.00;;;;;;6245428;23;20058;-74
2023/05/27 04:27:36;;;;;;;11.15;6.30;;;21.50;65.90;;;;;;6245199;23;20000;-73
2023/05/27 04:30:06;;;;;;;8.20;5.95;;;21.50;66.40;;;;;;6245144;23;19996;-73
2023/05/27 04:32:37;;;;;;;11.40;6.00;;;21.50;66.00;;;;;;6245259;23;20083;-74
2023/05/27 04:35:07;;;;;;;10.43;5.20;;;21.60;66.00;;;;;;6245325;23;20043;-73
2023/05/27 04:37:33;;;;;;;9.27;5.47;;;21.60;66.10;;;;;;6245126;23;20063;-73
2023/05/27 04:39:59;;;;;;;14.27;5.43;;;21.60;65.40;;;;;;6245193;23;20004;-73
2023/05/27 04:42:24;;;;;;;12.02;5.00;;;21.60;65.30;;;;;;6245121;23;19996;-73
2023/05/27 04:44:50;;;;;;;7.68;4.90;;;21.60;64.90;;;;;;6245234;23;20010;-75
2023/05/27 04:47:16;;;;;;;9.57;5.43;;;21.60;64.90;;;;;;6245424;23;20035;-73
2023/05/27 04:49:43;;;;;;;9.50;5.00;;;21.60;64.90;;;;;;6245480;23;20088;-73
2023/05/27 04:52:09;;;;;;;9.45;5.13;;;21.50;64.60;;;;;;6245012;23;20007;-75
2023/05/27 04:54:35;;;;;;;9.35;5.22;;;21.50;64.90;;;;;;6245182;23;20458;-74
2023/05/27 04:57:01;;;;;;;10.75;5.35;;;21.50;64.70;;;;;;6245382;23;20000;-76
2023/05/27 04:59:45;;;;;;;10.38;5.63;;;21.60;64.60;;;;;;6245141;23;20146;-74
2023/05/27 05:02:21;;;;;;;9.35;5.25;;;21.60;64.30;;;;;;6245175;23;20365;-71
2023/05/27 05:04:47;;;;;;;8.93;5.40;;;21.60;64.80;;;;;;6244397;23;20024;-73
2023/05/27 05:07:13;;;;;;;8.68;5.15;;;21.70;64.20;;;;;;6244616;23;20092;-74
2023/05/27 05:09:39;;;;;;;12.07;5.20;;;21.70;63.90;;;;;;6245190;23;20031;-74
2023/05/27 05:12:06;;;;;;;13.68;6.18;;;21.80;64.00;;;;;;6245008;23;20030;-72
2023/05/27 05:14:32;;;;;;;13.20;6.68;;;21.90;63.70;;;;;;6245406;23;20008;-73
2023/05/27 05:16:57;;;;;;;12.82;5.72;;;22.20;63.40;;;;;;6244828;23;20085;-74
2023/05/27 05:19:23;;;;;;;10.15;5.57;;;22.50;63.10;;;;;;6244931;23;20027;-74
2023/05/27 05:21:49;;;;;;;6.88;5.20;;;22.70;62.70;;;;;;6217984;23;20052;-73
2023/05/27 05:24:14;;;;;;;10.80;5.63;;;23.00;62.50;;;;;;6244654;23;20000;-73
2023/05/27 05:26:40;;;;;;;7.75;5.18;;;23.30;61.70;;;;;;6245386;23;20000;-73
2023/05/27 05:29:06;;;;;;;9.05;4.90;;;23.60;61.20;;;;;;6245325;23;20287;-73
2023/05/27 05:31:31;;;;;;;10.13;5.47;;;23.90;60.70;;;;;;6272069;22;20006;-73
2023/05/27 05:33:57;;;;;;;12.95;5.38;;;24.20;60.30;;;;;;6272420;22;20004;-74
2023/05/27 05:36:23;;;;;;;8.75;5.22;;;24.50;59.40;;;;;;6248266;23;20019;-73
2023/05/27 05:38:49;;;;;;;15.93;5.25;;;24.80;59.00;;;;;;6244809;23;20008;-74
2023/05/27 05:41:15;;;;;;;7.88;4.22;;;24.90;58.50;;;;;;6244610;23;19996;-74
2023/05/27 05:43:40;;;;;;;6.93;4.20;;;25.10;57.90;;;;;;6244719;23;20381;-74
2023/05/27 05:46:07;;;;;;;7.68;4.78;;;25.20;57.50;;;;;;6244534;23;20319;-75
2023/05/27 05:48:32;;;;;;;9.25;4.63;;;25.40;57.00;;;;;;6244591;23;20497;-74
2023/05/27 05:51:00;;;;;;;11.40;4.78;;;25.70;56.60;;;;;;6243949;23;20076;-75
2023/05/27 05:53:26;;;;;;;7.22;4.22;;;25.80;56.00;;;;;;6244904;23;20425;-75
2023/05/27 05:55:52;;;;;;;9.15;4.30;;;26.00;55.80;;;;;;6244723;23;20003;-74
2023/05/27 05:58:18;;;;;;;9.90;4.75;;;26.30;55.40;;;;;;6244659;23;20026;-73
2023/05/27 06:00:43;;;;;;;8.75;4.10;;;26.50;55.10;;;;;;6244431;23;20000;-74
2023/05/27 06:03:09;;;;;;;8.63;4.50;;;26.50;54.60;;;;;;6244386;23;20020;-74
2023/05/27 06:05:35;;;;;;;8.27;4.50;;;26.60;54.10;;;;;;6244739;23;20006;-74
2023/05/27 06:08:00;;;;;;;11.18;4.38;;;26.50;54.60;;;;;;6245174;23;20418;-74
2023/05/27 06:10:26;;;;;;;17.40;5.07;;;26.70;54.00;;;;;;6244641;23;20014;-75
2023/05/27 06:12:52;;;;;;;10.60;4.20;;;26.90;53.70;;;;;;6244974;23;20000;-74
2023/05/27 06:15:17;;;;;;;8.85;4.78;;;26.90;53.00;;;;;;6245100;23;20067;-75
2023/05/27 06:17:44;;;;;;;7.35;4.10;;;27.00;52.90;;;;;;6246518;23;20133;-73
2023/05/27 06:20:10;;;;;;;8.95;4.30;;;27.20;52.80;;;;;;6246854;23;20031;-74
2023/05/27 06:22:36;;;;;;;8.02;4.22;;;27.30;52.10;;;;;;6246585;23;20361;-74
2023/05/27 06:25:01;;;;;;;9.88;4.35;;;27.40;51.90;;;;;;6246397;23;20032;-74
2023/05/27 06:27:27;;;;;;;7.45;4.00;;;27.50;51.70;;;;;;6246231;23;20342;-75
2023/05/27 06:29:53;;;;;;;6.65;4.10;;;27.60;51.20;;;;;;6219118;23;20008;-74
2023/05/27 06:32:18;;;;;;;7.70;4.30;;;27.60;50.80;;;;;;6246536;23;20048;-73
2023/05/27 06:34:45;;;;;;;10.63;4.35;;;27.60;50.80;;;;;;6246473;23;20004;-74
2023/05/27 06:37:10;;;;;;;9.55;4.30;;;27.60;50.50;;;;;;6246503;23;20043;-75
2023/05/27 06:39:36;;;;;;;9.70;4.30;;;27.50;50.50;;;;;;6246209;23;20008;-75
2023/05/27 06:42:02;;;;;;;7.95;3.60;;;27.40;50.60;;;;;;6246383;23;20007;-75
2023/05/27 06:44:28;;;;;;;8.20;4.18;;;27.40;50.60;;;;;;6246525;23;20034;-76
2023/05/27 06:46:53;;;;;;;11.27;4.07;;;27.40;51.00;;;;;;6246278;23;20075;-75
2023/05/27 06:49:19;;;;;;;9.88;4.65;;;27.40;50.80;;;;;;6245944;23;20100;-74
2023/05/27 06:51:45;;;;;;;7.10;4.72;;;27.50;51.00;;;;;;6246256;23;20020;-75
2023/05/27 06:54:12;;;;;;;10.73;5.35;;;27.60;50.60;;;;;;6245994;23;20000;-73
2023/05/27 06:56:37;;;;;;;10.82;4.47;;;27.80;50.20;;;;;;6246284;23;20035;-74
2023/05/27 06:59:03;;;;;;;10.77;4.20;;;27.90;50.00;;;;;;6246191;23;20009;-76
2023/05/27 07:01:30;;;;;;;6.57;4.05;;;28.00;50.20;;;;;;6245978;23;20024;-73
2023/05/27 07:03:56;;;;;;;9.98;4.38;;;27.90;50.10;;;;;;6219070;23;20411;-74
2023/05/27 07:06:22;;;;;;;10.60;4.53;;;28.00;50.10;;;;;;6246017;23;20027;-75
2023/05/27 07:08:48;;;;;;;11.65;4.68;;;28.10;49.60;;;;;;6246007;23;20008;-75
2023/05/27 07:11:14;;;;;;;14.27;5.45;;;28.10;49.80;;;;;;6245727;23;20407;-74
2023/05/27 07:13:39;;;;;;;11.70;6.55;;;28.20;49.50;;;;;;6218804;23;20131;-75
2023/05/27 07:16:05;;;;;;;8.63;4.22;;;28.20;49.80;;;;;;6246336;23;20007;-79
2023/05/27 07:18:31;;;;;;;6.55;3.97;;;28.40;49.70;;;;;;6245859;23;20019;-78
2023/05/27 07:20:56;;;;;;;9.43;4.05;;;28.30;49.60;;;;;;6246393;23;20008;-80
2023/05/27 07:23:22;;;;;;;8.68;4.00;;;28.40;49.70;;;;;;6246299;23;20441;-78
2023/05/27 07:25:48;;;;;;;7.07;4.40;;;28.50;48.90;;;;;;6247027;23;20051;-80
2023/05/27 07:28:13;;;;;;;11.10;4.97;;;28.50;49.30;;;;;;6246569;23;20280;-80
2023/05/27 07:30:39;;;;;;;8.85;4.20;;;28.60;49.10;;;;;;6246821;23;20075;-81
2023/05/27 07:33:05;;;;;;;7.82;4.22;;;28.50;48.80;;;;;;6246509;23;20000;-77
2023/05/27 07:35:31;;;;;;;6.85;4.47;;;28.50;49.00;;;;;;6246177;23;20472;-78
2023/05/27 07:37:57;;;;;;;9.65;4.22;;;28.40;49.20;;;;;;6246420;23;20008;-78
2023/05/27 07:40:22;;;;;;;12.70;5.15;;;28.50;49.00;;;;;;6246596;23;20079;-78
2023/05/27 07:42:48;;;;;;;11.05;4.22;;;28.60;49.00;;;;;;6246521;23;20004;-78
2023/05/27 07:45:14;;;;;;;8.52;4.40;;;28.50;49.20;;;;;;6246729;23;20091;-77
2023/05/27 07:47:39;;;;;;;10.20;5.13;;;28.50;49.10;;;;;;6251628;23;20031;-76
2023/05/27 07:50:06;;;;;;;9.70;4.80;;;28.40;49.10;;;;;;6259872;23;20075;-78
2023/05/27 07:52:31;;;;;;;9.82;4.60;;;28.30;48.80;;;;;;6242366;23;20000;-79
2023/05/27 07:54:57;;;;;;;8.40;4.47;;;28.20;49.30;;;;;;6272141;23;20000;-78
2023/05/27 07:57:23;;;;;;;7.35;4.65;;;28.20;49.30;;;;;;6248436;23;20004;-78
2023/05/27 07:59:49;;;;;;;10.35;4.10;;;28.20;49.30;;;;;;6246451;23;20008;-79
2023/05/27 08:02:15;;;;;;;8.23;4.85;;;28.00;49.20;;;;;;6219523;23;20008;-78
2023/05/27 08:04:43;;;;;;;6.63;4.22;;;27.90;49.30;;;;;;6246412;23;20016;-79
2023/05/27 08:07:09;;;;;;;8.45;4.35;;;27.90;49.30;;;;;;6246836;23;20001;-78
2023/05/27 08:09:35;;;;;;;9.02;4.30;;;27.90;49.40;;;;;;6245871;23;20004;-77
2023/05/27 08:12:01;;;;;;;7.20;4.65;;;27.90;49.30;;;;;;6219305;23;20355;-76
2023/05/27 08:14:27;;;;;;;14.95;4.32;;;27.80;49.30;;;;;;6219568;23;20015;-78
2023/05/27 08:16:54;;;;;;;6.25;4.13;;;27.90;49.30;;;;;;6219084;23;20005;-79
2023/05/27 08:19:20;;;;;;;8.27;3.92;;;27.80;49.50;;;;;;6245972;23;20012;-78
2023/05/27 08:21:45;;;;;;;6.75;3.97;;;27.80;49.40;;;;;;6246082;23;20373;-79
2023/05/27 08:24:12;;;;;;;9.85;4.40;;;27.70;49.50;;;;;;6245967;23;20080;-80
2023/05/27 08:26:38;;;;;;;9.52;4.72;;;27.60;49.60;;;;;;6245872;23;20000;-77
2023/05/27 08:29:05;;;;;;;9.55;4.45;;;27.50;49.80;;;;;;6245710;23;20422;-79
2023/05/27 08:31:31;;;;;;;8.57;4.22;;;27.30;49.90;;;;;;6245274;23;20446;-76
2023/05/27 08:33:56;;;;;;;8.98;4.05;;;27.30;50.10;;;;;;6245129;23;20057;-76
2023/05/27 08:36:22;;;;;;;7.03;4.15;;;27.30;50.50;;;;;;6244665;23;19999;-76
2023/05/27 08:38:48;;;;;;;8.85;4.20;;;27.30;50.80;;;;;;6244790;23;20062;-76
2023/05/27 08:41:15;;;;;;;9.73;4.30;;;27.20;50.70;;;;;;6244611;23;20064;-77
2023/05/27 08:43:42;;;;;;;8.27;4.40;;;27.30;50.80;;;;;;6244820;23;20004;-79
2023/05/27 08:46:08;;;;;;;9.32;4.38;;;27.20;50.80;;;;;;6245672;23;20426;-78
2023/05/27 08:48:33;;;;;;;9.40;4.18;;;27.20;50.80;;;;;;6246258;23;20004;-79
2023/05/27 08:51:01;;;;;;;10.13;4.82;;;27.10;51.20;;;;;;6245988;23;20024;-78
2023/05/27 08:53:28;;;;;;;14.77;4.65;;;27.10;51.10;;;;;;6245505;23;20054;-79
2023/05/27 08:55:56;;;;;;;10.15;4.70;;;27.10;51.40;;;;;;6246079;23;19996;-80
2023/05/27 08:58:22;;;;;;;11.15;4.47;;;27.00;51.70;;;;;;6245394;23;20050;-79
2023/05/27 09:00:48;;;;;;;9.27;3.85;;;27.10;51.50;;;;;;6245791;23;20000;-79
2023/05/27 09:03:14;;;;;;;13.55;5.20;;;27.10;51.10;;;;;;6245294;23;20013;-79
2023/05/27 09:05:41;;;;;;;6.93;3.75;;;27.10;51.10;;;;;;6245729;23;20028;-79
2023/05/27 09:08:07;;;;;;;7.18;4.03;;;27.00;50.60;;;;;;6246077;23;20000;-80
2023/05/27 09:10:40;;;;;;;10.25;4.30;;;27.00;50.70;;;;;;6246027;23;20027;-81
2023/05/27 09:13:06;;;;;;;6.85;4.22;;;27.00;50.80;;;;;;6245529;23;20004;-81
2023/05/27 09:15:32;;;;;;;13.63;4.60;;;27.10;50.60;;;;;;6245908;23;19996;-80
2023/05/27 09:17:58;;;;;;;7.05;4.13;;;27.10;50.60;;;;;;6245699;23;20091;-79
2023/05/27 09:20:28;;;;;;;10.80;4.60;;;27.20;50.00;;;;;;6245546;23;20377;-80
2023/05/27 09:22:58;;;;;;;11.82;4.45;;;27.20;49.90;;;;;;6245639;23;20000;-80
2023/05/27 09:25:25;;;;;;;9.00;4.20;;;27.20;49.50;;;;;;6245745;23;20800;-79
2023/05/27 09:27:51;;;;;;;7.13;4.28;;;27.30;48.90;;;;;;6245563;23;20430;-78
2023/05/27 09:30:20;;;;;;;9.48;4.70;;;27.30;48.20;;;;;;6245880;23;20027;-80
2023/05/27 09:32:46;;;;;;;8.80;3.97;;;27.30;48.60;;;;;;6245682;23;20004;-80
2023/05/27 09:35:13;;;;;;;23.00;5.10;;;27.40;48.80;;;;;;6245670;23;20018;-78
2023/05/27 09:37:40;;;;;;;15.30;5.10;;;27.40;48.10;;;;;;6245388;23;20015;-80
2023/05/27 09:40:14;;;;;;;6.90;3.88;;;27.50;48.20;;;;;;6245873;23;20015;-79
2023/05/27 09:42:40;;;;;;;10.05;3.70;;;27.50;47.30;;;;;;6245696;23;20016;-79
2023/05/27 09:45:09;;;;;;;9.23;4.10;;;27.50;47.40;;;;;;6218743;23;20278;-80
2023/05/27 09:47:41;;;;;;;6.40;3.40;;;27.50;47.20;;;;;;6246377;23;20004;-80
2023/05/27 09:50:09;;;;;;;8.27;3.53;;;27.60;45.80;;;;;;6246640;23;20054;-80
2023/05/27 09:52:41;;;;;;;7.97;3.92;;;27.60;46.80;;;;;;6248618;23;20071;-79
2023/05/27 09:55:09;;;;;;;12.13;4.35;;;27.60;45.80;;;;;;6247760;23;20419;-79
2023/05/27 09:57:36;;;;;;;6.53;3.95;;;27.60;47.00;;;;;;6247961;23;20004;-78
2023/05/27 10:00:13;;;;;;;7.45;3.33;;;27.70;46.50;;;;;;6248591;23;20008;-81
2023/05/27 10:02:48;;;;;;;6.35;3.30;;;27.70;45.90;;;;;;6247646;23;20000;-81
2023/05/27 10:05:15;;;;;;;8.13;3.45;;;27.70;46.00;;;;;;6247789;23;20020;-80
2023/05/27 10:07:43;;;;;;;6.72;3.63;;;27.70;46.30;;;;;;6252478;23;20495;-81
2023/05/27 10:10:17;;;;;;;6.95;3.42;;;27.70;46.30;;;;;;6258769;23;19996;-79
2023/05/27 10:12:45;;;;;;;7.50;4.18;;;27.70;45.00;;;;;;6262303;23;20067;-80
2023/05/27 10:15:24;;;;;;;6.65;3.97;;;27.80;46.80;;;;;;6263759;23;20016;-79
2023/05/27 10:18:02;;;;;;;6.40;3.35;;;27.80;46.30;;;;;;6256008;23;20015;-81
2023/05/27 10:20:38;;;;;;;5.47;3.53;;;27.70;44.20;;;;;;6248850;23;20312;-82
2023/05/27 10:23:15;;;;;;;10.00;3.78;;;27.70;44.60;;;;;;6247864;23;20001;-78
2023/05/27 10:25:53;;;;;;;6.85;3.72;;;27.70;46.10;;;;;;6222401;23;20442;-78
2023/05/27 10:28:36;;;;;;;5.70;3.50;;;27.70;46.30;;;;;;6248511;23;20426;-80
2023/05/27 10:31:16;;;;;;;7.75;3.72;;;27.90;44.20;;;;;;6248814;23;20434;-78
2023/05/27 10:33:49;;;;;;;7.75;3.50;;;28.00;43.90;;;;;;6247929;23;20011;-80
2023/05/27 10:36:17;;;;;;;5.20;3.35;;;28.00;44.80;;;;;;6247997;23;20062;-79
2023/05/27 10:38:58;;;;;;;7.57;3.35;;;28.00;44.80;;;;;;6247579;23;20013;-80
2023/05/27 10:41:23;;;;;;;6.07;3.20;;;28.00;45.00;;;;;;6247151;23;19997;-80
2023/05/27 10:43:59;;;;;;;6.00;3.50;;;28.10;44.20;;;;;;6247984;23;20058;-80
2023/05/27 10:46:26;;;;;;;5.65;3.50;;;28.10;44.10;;;;;;6249005;23;20111;-80
2023/05/27 10:48:52;;;;;;;7.20;3.70;;;28.20;44.30;;;;;;6247885;23;20031;-80
2023/05/27 10:51:17;;;;;;;7.35;3.80;;;28.30;44.50;;;;;;6247216;23;20439;-82
2023/05/27 10:53:43;;;;;;;7.45;3.78;;;28.40;44.00;;;;;;6247595;23;20000;-80
2023/05/27 10:56:10;;;;;;;6.45;3.47;;;28.40;44.00;;;;;;6247061;23;20023;-79
2023/05/27 10:58:38;;;;;;;6.28;3.30;;;28.50;43.70;;;;;;6246974;23;20150;-80
2023/05/27 11:01:10;;;;;;;6.25;3.33;;;28.50;43.70;;;;;;6247329;23;20003;-79
2023/05/27 11:03:42;;;;;;;6.80;3.60;;;28.60;43.60;;;;;;6247018;23;20074;-80
2023/05/27 11:06:10;;;;;;;6.13;3.42;;;28.70;43.20;;;;;;6247773;23;20123;-80
2023/05/27 11:08:37;;;;;;;5.90;3.70;;;28.70;42.90;;;;;;6247452;23;20091;-80
2023/05/27 11:11:07;;;;;;;9.60;3.40;;;28.80;43.00;;;;;;6247059;23;20052;-80
2023/05/27 11:13:33;;;;;;;7.18;3.85;;;28.80;43.20;;;;;;6247241;23;19996;-80
2023/05/27 11:16:00;;;;;;;6.40;3.35;;;28.80;43.20;;;;;;6247224;23;20090;-80
2023/05/27 11:18:54;;;;;;;8.32;3.53;;;28.90;43.50;;;;;;6247061;23;20008;-80
2023/05/27 11:21:20;;;;;;;6.45;3.50;;;28.90;43.40;;;;;;6246358;23;20035;-81
2023/05/27 11:23:48;;;;;;;6.53;3.60;;;28.90;43.80;;;;;;6247400;23;20091;-80
2023/05/27 11:26:18;;;;;;;7.15;3.65;;;29.00;43.80;;;;;;6247755;23;20000;-80
2023/05/27 11:28:53;;;;;;;8.95;3.60;;;29.10;43.50;;;;;;6247398;23;20075;-80
2023/05/27 11:31:20;;;;;;;6.32;3.70;;;29.10;43.50;;;;;;6247206;23;20335;-81
2023/05/27 11:33:49;;;;;;;8.95;3.97;;;29.10;43.80;;;;;;6246958;23;20038;-80
2023/05/27 11:36:16;;;;;;;8.07;4.20;;;29.20;44.10;;;;;;6246681;23;20389;-80
2023/05/27 11:38:55;;;;;;;8.38;4.10;;;29.20;44.10;;;;;;6246862;23;20063;-80
2023/05/27 11:41:22;;;;;;;6.30;4.00;;;29.30;43.80;;;;;;6246357;23;20000;-79
2023/05/27 11:43:50;;;;;;;7.50;3.80;;;29.30;43.70;;;;;;6246501;23;20724;-81
2023/05/27 11:46:16;;;;;;;7.63;3.35;;;29.30;43.50;;;;;;6246809;23;20426;-78
2023/05/27 11:48:42;;;;;;;8.55;3.60;;;29.30;43.40;;;;;;6247034;23;20045;-87
2023/05/27 11:51:09;;;;;;;6.63;3.47;;;29.40;43.60;;;;;;6246732;23;20050;-84
2023/05/27 11:53:39;;;;;;;7.32;4.25;;;29.40;43.60;;;;;;6247148;23;20007;-79
2023/05/27 11:56:04;;;;;;;7.85;4.22;;;29.50;43.40;;;;;;6248009;23;20373;-77
2023/05/27 11:58:30;;;;;;;8.13;4.05;;;29.60;43.50;;;;;;6244317;23;20008;-78
2023/05/27 12:00:56;;;;;;;6.55;4.10;;;29.60;43.30;;;;;;6246139;23;20000;-85
2023/05/27 12:03:21;;;;;;;5.40;3.75;;;29.50;43.30;;;;;;6246626;23;20016;-84
2023/05/27 12:05:47;;;;;;;5.97;3.65;;;29.60;43.20;;;;;;6245880;23;20027;-85
2023/05/27 12:08:13;;;;;;;6.40;3.70;;;29.60;43.10;;;;;;6247350;23;20075;-85
2023/05/27 12:10:38;;;;;;;5.45;3.75;;;29.60;42.70;;;;;;6222224;23;20012;-80
2023/05/27 12:13:05;;;;;;;5.90;3.55;;;29.60;42.70;;;;;;6250411;23;20142;-86
2023/05/27 12:15:32;;;;;;;6.95;3.80;;;29.70;43.10;;;;;;6248585;23;19999;-83
2023/05/27 12:17:57;;;;;;;7.35;4.05;;;29.80;43.10;;;;;;6252977;23;20027;-86
2023/05/27 12:20:27;;;;;;;6.95;4.03;;;29.90;42.80;;;;;;6265165;23;20000;-82
2023/05/27 12:22:53;;;;;;;7.07;3.90;;;29.90;42.90;;;;;;6267317;23;20003;-85
2023/05/27 12:25:19;;;;;;;7.50;3.55;;;29.80;42.70;;;;;;6273081;23;20035;-85
2023/05/27 12:27:45;;;;;;;7.07;4.10;;;29.80;42.80;;;;;;6251790;23;20080;-86
2023/05/27 12:30:12;;;;;;;7.80;4.13;;;29.80;42.90;;;;;;6220145;23;20445;-84
2023/05/27 12:32:38;;;;;;;6.43;3.72;;;29.80;42.50;;;;;;6246865;23;20004;-86
2023/05/27 12:35:04;;;;;;;6.78;4.22;;;29.70;42.80;;;;;;6246829;23;20052;-84
2023/05/27 12:37:30;;;;;;;7.70;4.13;;;29.70;42.90;;;;;;6246732;23;20004;-85
2023/05/27 12:39:56;;;;;;;8.73;4.07;;;29.70;43.00;;;;;;6247511;23;20008;-86
2023/05/27 12:42:22;;;;;;;6.43;3.88;;;29.70;42.80;;;;;;6260527;23;20075;-84